Time;durP1;ratioP1;P1;durP2;ratioP2;P2;SDS_P1;SDS_P2;PMS_P1;PMS_P2;Temp;Humidity;BMP_temperature;BMP_pressure;BME280_temperature;BME280_humidity;BME280_pressure;Samples;Min_cycle;Max_cycle;Signal;HPM_P1;HPM_P2
2022/10/08 07:03:55;;;;;;;13.43;3.07;;;;;;;15.59;70.41;96977.47;2071332;27;1231319;-63
2022/10/08 07:05:00;;;;;;;8.00;3.53;;;;;;;15.81;69.00;96966.53;2114485;28;20193;-64
2022/10/08 07:11:11;;;;;;;11.75;2.85;;;;;;;17.36;65.36;96984.94;2100249;28;20183;-64
2022/10/08 07:12:13;;;;;;;12.15;3.58;;;;;;;17.80;64.56;96986.34;2088778;28;20254;-64
2022/10/08 07:13:15;;;;;;;10.13;2.88;;;;;;;17.81;63.49;96977.47;2098074;28;20199;-64
2022/10/08 07:14:16;;;;;;;9.20;3.28;;;;;;;17.41;64.46;96967.84;2090278;28;20200;-64
2022/10/08 07:15:21;;;;;;;8.65;3.10;;;;;;;17.50;64.51;96984.84;2091323;28;20200;-64
2022/10/08 07:16:25;;;;;;;7.32;2.42;;;;;;;17.17;65.63;96982.69;2089726;28;20316;-64
2022/10/08 07:17:27;;;;;;;15.25;3.08;;;;;;;17.49;64.80;96998.16;2089655;28;20691;-64
2022/10/08 07:18:30;;;;;;;14.80;3.08;;;;;;;17.49;65.26;96992.88;2090370;28;20230;-64
2022/10/08 07:19:31;;;;;;;6.40;2.90;;;;;;;17.42;65.27;96981.88;2091692;28;20196;-65
2022/10/08 07:20:33;;;;;;;10.15;4.00;;;;;;;17.63;64.06;96996.25;2091600;28;20207;-64
2022/10/08 07:21:34;;;;;;;10.55;2.75;;;;;;;17.30;64.05;96989.66;2092018;28;20200;-64
2022/10/08 07:22:36;;;;;;;23.52;4.00;;;;;;;16.75;63.78;96991.44;2084574;28;20299;-64
2022/10/08 07:23:38;;;;;;;13.02;3.00;;;;;;;16.94;64.73;97008.78;2094708;28;20235;-64
2022/10/08 07:24:39;;;;;;;15.18;3.45;;;;;;;17.26;63.44;96998.72;2091783;28;20200;-64
2022/10/08 07:25:41;;;;;;;15.73;3.65;;;;;;;17.26;62.75;96995.25;2089673;28;20600;-65
2022/10/08 07:26:42;;;;;;;14.27;3.60;;;;;;;16.63;63.48;96997.50;2078001;28;20291;-64
2022/10/08 07:27:43;;;;;;;10.13;3.15;;;;;;;16.89;63.14;97005.56;2097419;28;20246;-64
2022/10/08 07:28:57;;;;;;;12.13;2.60;;;;;;;16.88;63.21;97004.69;2098479;28;20191;-65
2022/10/08 07:29:58;;;;;;;11.27;2.45;;;;;;;16.24;63.98;97009.59;2094055;28;20681;-64
2022/10/08 07:31:05;;;;;;;7.60;2.22;;;;;;;16.23;65.17;97007.94;2094898;28;20279;-65
2022/10/08 07:47:57;;;;;;;9.10;2.75;;;;;;;17.60;58.67;97027.34;2065712;27;1303907;-64
2022/10/08 07:49:00;;;;;;;7.00;2.15;;;;;;;16.60;59.90;97030.19;2107303;28;20289;-66
2022/10/08 07:50:03;;;;;;;7.70;2.35;;;;;;;16.74;60.71;97031.94;2107258;28;20257;-66
2022/10/08 07:51:10;;;;;;;12.63;4.07;;;;;;;16.85;60.42;97014.59;2114130;28;20637;-66
2022/10/08 07:52:11;;;;;;;8.23;2.50;;;;;;;16.83;60.22;97024.41;2097877;28;20727;-66
2022/10/08 07:53:12;;;;;;;9.75;2.55;;;;;;;16.81;61.04;97038.53;2097628;28;20260;-66
2022/10/08 07:54:17;;;;;;;14.73;3.25;;;;;;;16.67;60.63;97025.38;2100004;28;20281;-66
2022/10/08 07:55:19;;;;;;;10.35;2.92;;;;;;;16.56;61.54;97033.97;2110578;28;20290;-66
2022/10/08 07:56:23;;;;;;;20.13;3.95;;;;;;;16.68;60.76;97036.78;2110660;28;20194;-66
2022/10/08 07:57:26;;;;;;;7.40;2.78;;;;;;;16.98;61.22;97028.72;2097515;28;20991;-65
2022/10/08 07:58:27;;;;;;;10.65;2.75;;;;;;;17.39;60.51;97037.53;2099124;28;20904;-64
2022/10/08 07:59:29;;;;;;;10.43;3.42;;;;;;;17.98;58.03;97023.06;2105399;28;20298;-64
2022/10/08 08:00:30;;;;;;;18.45;3.60;;;;;;;18.47;56.67;97032.00;2109726;28;20195;-64
2022/10/08 08:01:35;;;;;;;11.90;3.10;;;;;;;19.01;55.94;97034.34;2114647;28;20268;-64
2022/10/08 08:02:37;;;;;;;11.25;2.90;;;;;;;18.88;55.83;97031.72;2096507;28;20393;-65
2022/10/08 08:03:39;;;;;;;11.25;3.00;;;;;;;18.66;56.29;97029.75;2106009;28;20908;-64
2022/10/08 08:10:04;;;;;;;15.95;3.50;;;;;;;20.18;51.77;97043.31;2115679;28;20174;-66
2022/10/08 08:11:08;;;;;;;14.65;2.65;;;;;;;20.91;49.20;97039.44;2112681;28;20402;-66
2022/10/08 08:12:10;;;;;;;15.80;2.72;;;;;;;21.26;48.90;97046.38;2097311;28;20269;-66
2022/10/08 08:13:12;;;;;;;12.23;3.00;;;;;;;22.10;45.81;97045.63;2105979;28;20307;-66
2022/10/08 08:14:13;;;;;;;9.32;2.33;;;;;;;22.20;44.37;97038.53;2109396;28;20280;-66
2022/10/08 08:15:15;;;;;;;17.50;2.80;;;;;;;22.40;45.20;97042.19;2113286;28;20198;-66
2022/10/08 08:16:24;;;;;;;16.95;3.05;;;;;;;22.40;43.61;97046.66;2115625;28;20809;-66
2022/10/08 08:17:29;;;;;;;8.38;2.83;;;;;;;21.96;44.92;97023.72;2111745;28;20214;-66
2022/10/08 08:18:32;;;;;;;13.75;3.50;;;;;;;22.12;45.06;97043.69;2111738;28;20241;-66
2022/10/08 08:19:38;;;;;;;10.50;3.33;;;;;;;22.17;44.91;97039.66;2115032;28;20201;-65
2022/10/08 08:20:41;;;;;;;14.60;3.10;;;;;;;22.76;43.90;97033.78;2104649;28;20203;-66
2022/10/08 08:21:43;;;;;;;8.77;2.65;;;;;;;22.98;43.37;97040.69;2092678;28;20591;-66
2022/10/08 08:22:49;;;;;;;12.13;2.42;;;;;;;21.86;44.16;97036.09;2105615;28;20663;-66
2022/10/08 08:23:53;;;;;;;14.60;3.90;;;;;;;22.71;43.21;97041.31;2107357;28;20202;-66
2022/10/08 08:24:54;;;;;;;12.43;2.45;;;;;;;23.04;43.50;97048.13;2097462;28;20322;-66
2022/10/08 08:26:00;;;;;;;8.38;2.47;;;;;;;22.96;43.49;97040.00;2090555;28;20231;-66
2022/10/08 08:27:02;;;;;;;13.02;3.00;;;;;;;22.94;43.97;97040.13;2091792;28;20760;-66
2022/10/08 08:28:07;;;;;;;27.10;5.07;;;;;;;23.21;42.77;97049.34;2100206;28;20234;-66
2022/10/08 08:29:14;;;;;;;18.95;3.80;;;;;;;23.80;41.80;97054.66;2102152;28;20252;-66
2022/10/08 08:30:16;;;;;;;13.20;3.60;;;;;;;23.38;41.97;97049.63;2114052;28;20230;-66
2022/10/08 08:31:20;;;;;;;12.95;2.60;;;;;;;22.73;42.83;97050.00;2110838;28;20228;-66
2022/10/08 08:32:22;;;;;;;16.90;3.22;;;;;;;23.41;42.55;97052.00;2095068;28;20390;-67
2022/10/08 08:33:29;;;;;;;11.70;3.25;;;;;;;23.42;42.67;97053.69;2103299;28;20282;-66
2022/10/08 08:34:30;;;;;;;15.05;3.08;;;;;;;23.44;42.26;97052.56;2110855;28;20369;-66
2022/10/08 08:35:31;;;;;;;11.65;2.05;;;;;;;22.39;43.93;97059.13;2114914;28;20280;-66
2022/10/08 08:36:36;;;;;;;7.63;2.55;;;;;;;23.19;42.42;97058.44;2109021;28;20875;-66
2022/10/08 08:37:38;;;;;;;11.23;2.75;;;;;;;23.52;42.16;97061.69;2093297;28;20827;-66
2022/10/08 08:38:44;;;;;;;8.35;2.58;;;;;;;22.49;43.98;97067.16;2102125;28;20943;-66
2022/10/08 08:39:45;;;;;;;9.85;2.60;;;;;;;22.37;44.76;97062.88;2110408;28;20284;-66
2022/10/08 08:46:02;;;;;;;13.30;2.72;;;;;;;20.55;47.70;97060.81;2112488;28;20194;-65
2022/10/08 08:47:12;;;;;;;7.05;2.20;;;;;;;20.49;49.62;97053.31;2105051;28;20241;-67
2022/10/08 08:48:19;;;;;;;12.13;2.55;;;;;;;20.36;48.32;97054.28;2108306;28;20230;-66
2022/10/08 08:49:30;;;;;;;14.82;2.55;;;;;;;20.40;49.77;97054.88;2113738;28;20282;-65
2022/10/08 08:50:40;;;;;;;11.05;3.40;;;;;;;20.65;48.58;97053.81;2113083;28;20273;-65
2022/10/08 08:51:48;;;;;;;11.18;2.15;;;;;;;21.03;48.36;97060.53;2104976;28;20193;-68
2022/10/08 08:58:05;;;;;;;8.38;2.33;;;;;;;23.99;41.58;97061.00;2094760;28;20213;-67
2022/10/08 08:59:26;;;;;;;17.90;2.20;;;;;;;23.48;42.37;97056.63;2109738;28;20584;-66
2022/10/08 09:00:37;;;;;;;10.57;2.90;;;;;;;23.03;42.80;97053.59;2105597;28;20675;-65
2022/10/08 09:01:45;;;;;;;10.95;2.95;;;;;;;22.60;43.71;97059.09;2099537;28;20230;-66
2022/10/08 09:03:02;;;;;;;17.17;3.03;;;;;;;23.25;43.23;97065.84;2106149;28;20209;-66
2022/10/08 09:04:22;;;;;;;10.23;2.95;;;;;;;23.57;40.54;97054.94;2104627;28;20257;-66
2022/10/08 09:05:27;;;;;;;10.55;2.35;;;;;;;23.92;40.52;97066.03;2108699;28;20877;-66
2022/10/08 09:06:29;;;;;;;10.10;2.17;;;;;;;24.24;39.72;97059.53;2105066;28;20255;-67
2022/10/08 09:07:59;;;;;;;10.25;2.35;;;;;;;24.12;39.51;97058.84;2091612;28;20675;-66
2022/10/08 09:09:29;;;;;;;16.15;2.65;;;;;;;24.03;39.78;97059.72;2104015;28;20234;-66
2022/10/08 09:10:47;;;;;;;13.63;1.88;;;;;;;23.71;40.43;97061.69;2104505;28;20234;-66
2022/10/08 09:11:48;;;;;;;9.80;2.67;;;;;;;23.23;41.23;97074.00;2097290;28;20198;-65
2022/10/08 09:12:52;;;;;;;11.43;2.22;;;;;;;23.79;39.08;97068.97;2099396;28;20237;-65
2022/10/08 09:14:26;;;;;;;17.63;2.83;;;;;;;23.36;39.55;97065.72;2100469;28;20214;-66
2022/10/08 09:15:36;;;;;;;12.25;3.10;;;;;;;23.10;40.16;97076.88;2085940;28;20289;-66
2022/10/08 09:16:38;;;;;;;9.20;2.40;;;;;;;23.42;40.37;97077.66;2105265;28;20202;-66
2022/10/08 09:17:40;;;;;;;15.57;2.97;;;;;;;22.66;41.24;97082.50;2098641;28;20306;-66
2022/10/08 09:18:46;;;;;;;14.20;3.10;;;;;;;21.72;42.58;97074.47;2104833;28;20199;-66
2022/10/08 09:19:48;;;;;;;15.60;3.22;;;;;;;21.67;43.34;97082.84;2108601;28;20234;-67
2022/10/08 09:20:49;;;;;;;14.98;3.95;;;;;;;22.74;41.83;97078.31;2098757;28;20283;-66
2022/10/08 09:21:55;;;;;;;15.95;4.15;;;;;;;23.27;40.80;97078.09;2100068;28;20731;-66
2022/10/08 09:22:57;;;;;;;13.10;3.10;;;;;;;23.55;40.06;97075.56;2104851;28;20282;-66
2022/10/08 09:23:59;;;;;;;8.13;2.70;;;;;;;23.42;39.66;97075.00;2106339;28;20350;-66
2022/10/08 09:25:14;;;;;;;16.75;3.38;;;;;;;23.84;38.98;97080.06;2107657;28;20254;-66
2022/10/08 09:26:21;;;;;;;13.38;2.40;;;;;;;23.63;38.95;97082.88;2100974;28;20396;-68
2022/10/08 09:27:49;;;;;;;10.25;1.98;;;;;;;23.94;39.34;97088.91;2089259;28;20230;-66
2022/10/08 09:28:53;;;;;;;12.48;2.25;;;;;;;24.32;38.97;97082.84;2101038;28;21154;-66
2022/10/08 09:29:54;;;;;;;13.88;2.22;;;;;;;25.09;37.74;97089.72;2108045;28;20774;-67
2022/10/08 09:31:12;;;;;;;12.23;2.50;;;;;;;24.26;38.63;97082.44;2107466;28;20215;-66
2022/10/08 09:32:19;;;;;;;13.25;2.50;;;;;;;24.52;37.46;97086.28;2098490;28;20267;-66
2022/10/08 09:33:30;;;;;;;14.13;2.72;;;;;;;24.83;36.92;97092.22;2107844;28;20263;-65
2022/10/08 09:34:32;;;;;;;14.25;3.13;;;;;;;25.36;36.22;97098.72;2099323;28;20266;-66
2022/10/08 09:35:44;;;;;;;13.68;2.80;;;;;;;25.22;36.30;97080.50;2099647;28;20230;-66
2022/10/08 09:37:19;;;;;;;8.15;2.38;;;;;;;24.93;36.88;97098.38;2090191;28;20654;-66
2022/10/08 09:38:27;;;;;;;6.50;2.35;;;;;;;24.86;38.45;97091.94;2104209;28;20296;-66
2022/10/08 09:39:32;;;;;;;23.60;2.47;;;;;;;25.49;36.76;97105.56;2089306;28;20224;-66
2022/10/08 09:47:14;;;;;;;10.45;2.60;;;;;;;23.57;39.75;97100.25;2097511;28;20297;-65
2022/10/08 09:48:24;;;;;;;9.18;2.80;;;;;;;24.11;39.72;97103.38;2093359;28;20235;-65
2022/10/08 09:49:37;;;;;;;19.23;3.00;;;;;;;24.92;38.26;97101.19;2095636;28;20282;-66
2022/10/08 09:50:47;;;;;;;15.35;2.75;;;;;;;24.45;37.95;97089.53;2109614;28;20290;-65
2022/10/08 09:51:49;;;;;;;10.35;2.45;;;;;;;24.85;37.51;97076.06;2098141;28;21010;-65
2022/10/08 09:52:53;;;;;;;11.27;3.10;;;;;;;24.98;37.45;97076.56;2099765;28;20233;-66
2022/10/08 09:54:11;;;;;;;10.77;2.60;;;;;;;25.02;38.72;97079.78;2102604;28;20348;-66
2022/10/08 09:55:19;;;;;;;14.65;3.05;;;;;;;23.06;40.75;97096.78;2104263;28;20211;-66
2022/10/08 09:56:26;;;;;;;7.03;2.15;;;;;;;23.03;41.20;97088.22;2105349;28;20294;-66
2022/10/08 09:57:29;;;;;;;10.00;2.58;;;;;;;22.57;41.13;97088.59;2088138;28;20259;-66
2022/10/08 09:58:49;;;;;;;12.40;2.58;;;;;;;22.91;40.68;97104.28;2098301;28;20234;-66
2022/10/08 09:59:59;;;;;;;11.85;2.88;;;;;;;23.27;40.58;97098.53;2108534;28;20195;-66
2022/10/08 10:01:12;;;;;;;13.95;3.05;;;;;;;23.38;40.30;97093.09;2104842;28;20286;-67
2022/10/08 10:02:34;;;;;;;12.40;2.97;;;;;;;22.15;41.79;97094.78;2096341;28;20241;-66
2022/10/08 10:03:49;;;;;;;10.70;2.67;;;;;;;22.40;41.85;97089.22;2105288;28;20229;-66
2022/10/08 10:04:53;;;;;;;6.35;2.35;;;;;;;21.87;42.90;97108.72;2103504;28;20203;-65
2022/10/08 10:05:56;;;;;;;8.23;2.03;;;;;;;21.80;42.57;97101.25;2097572;28;20286;-65
2022/10/08 10:06:58;;;;;;;9.48;2.42;;;;;;;21.52;42.59;97108.81;2088317;28;20228;-66
2022/10/08 10:08:00;;;;;;;11.60;3.13;;;;;;;22.63;40.92;97109.34;2100000;28;20730;-65
2022/10/08 10:09:23;;;;;;;8.10;2.30;;;;;;;23.74;38.67;97103.22;2093210;28;20231;-65
2022/10/08 10:10:28;;;;;;;12.65;2.50;;;;;;;24.69;37.40;97109.56;2101879;28;20756;-65
2022/10/08 10:11:55;;;;;;;14.70;2.90;;;;;;;25.84;35.55;97090.50;2106384;28;20246;-65
2022/10/08 10:13:05;;;;;;;9.43;2.03;;;;;;;25.53;35.70;97099.72;2095971;28;20223;-65
2022/10/08 10:14:33;;;;;;;11.70;2.17;;;;;;;26.40;35.48;97109.88;2099209;28;20306;-65
2022/10/08 10:15:44;;;;;;;14.05;2.85;;;;;;;26.82;34.65;97093.06;2108438;28;20638;-64
2022/10/08 10:16:49;;;;;;;13.70;3.08;;;;;;;26.72;35.61;97109.22;2090933;28;20823;-65
2022/10/08 10:17:59;;;;;;;9.57;2.10;;;;;;;26.85;33.91;97114.16;2101263;28;20282;-65
2022/10/08 10:19:07;;;;;;;7.63;1.63;;;;;;;27.56;33.62;97111.25;2104760;28;20557;-65
2022/10/08 10:20:19;;;;;;;12.32;2.70;;;;;;;27.58;33.32;97113.75;2098595;28;20195;-65
2022/10/08 10:21:49;;;;;;;11.73;2.38;;;;;;;27.56;33.22;97095.16;2097632;28;20207;-66
2022/10/08 10:23:09;;;;;;;11.82;2.30;;;;;;;27.78;33.61;97106.25;2107799;28;20660;-66
2022/10/08 10:24:29;;;;;;;10.27;2.63;;;;;;;27.00;34.51;97108.22;2105092;28;20209;-66
2022/10/08 10:25:39;;;;;;;9.60;2.40;;;;;;;26.50;34.77;97107.91;2105705;28;20311;-67
2022/10/08 10:26:42;;;;;;;9.43;3.13;;;;;;;24.57;36.43;97087.53;2106526;28;20636;-66
2022/10/08 10:27:52;;;;;;;12.57;2.15;;;;;;;24.77;37.24;97114.19;2108938;28;20339;-66
2022/10/08 10:28:58;;;;;;;8.10;1.80;;;;;;;24.88;36.54;97103.31;2104551;28;20237;-65
2022/10/08 10:30:22;;;;;;;11.35;2.85;;;;;;;23.86;38.50;97099.44;2106806;28;20705;-65
2022/10/08 10:31:26;;;;;;;9.40;2.33;;;;;;;22.57;40.46;97099.25;2092127;28;20312;-66
2022/10/08 10:32:42;;;;;;;14.65;2.88;;;;;;;22.67;40.66;97108.09;2079767;28;20318;-66
2022/10/08 10:34:00;;;;;;;14.07;2.90;;;;;;;21.67;41.90;97095.25;2100365;28;20199;-66
2022/10/08 10:35:31;;;;;;;11.27;2.53;;;;;;;22.27;41.85;97114.19;2108297;28;20402;-66
2022/10/08 10:36:59;;;;;;;13.38;1.95;;;;;;;22.68;40.59;97087.69;2092539;28;20242;-66
2022/10/08 10:38:08;;;;;;;14.07;3.03;;;;;;;23.45;39.44;97115.53;2102384;28;20302;-66
2022/10/08 10:39:29;;;;;;;12.25;2.47;;;;;;;24.99;37.37;97110.31;2105366;28;20589;-66
2022/10/08 10:40:35;;;;;;;12.85;2.85;;;;;;;23.98;38.81;97094.00;2106044;28;20320;-66
2022/10/08 10:42:34;;;;;;;11.82;3.17;;;;;;;24.01;38.33;97105.22;2106651;28;20277;-66
2022/10/08 10:43:51;;;;;;;11.07;2.35;;;;;;;24.73;36.21;97110.13;2064486;28;20288;-66
2022/10/08 10:45:30;;;;;;;8.77;2.45;;;;;;;25.31;36.52;97111.66;2067106;28;20228;-66
2022/10/08 10:46:54;;;;;;;9.07;2.63;;;;;;;25.40;34.60;97107.28;2066624;28;20230;-66
2022/10/08 10:47:56;;;;;;;12.32;2.20;;;;;;;26.15;35.35;97112.34;2064666;28;20276;-66
2022/10/08 10:48:58;;;;;;;14.32;2.60;;;;;;;25.88;35.60;97114.09;2084628;28;20559;-66
2022/10/08 10:50:00;;;;;;;10.98;2.40;;;;;;;26.12;34.67;97085.91;2105594;28;20337;-67
2022/10/08 10:51:14;;;;;;;13.13;2.92;;;;;;;25.73;35.53;97108.44;2107405;28;20681;-66
2022/10/08 10:52:49;;;;;;;11.77;2.30;;;;;;;25.75;34.75;97105.66;2091980;28;20972;-67
2022/10/08 10:54:13;;;;;;;6.85;1.70;;;;;;;26.39;34.42;97110.84;2098404;28;20192;-67
2022/10/08 10:55:30;;;;;;;12.73;3.65;;;;;;;26.96;33.54;97105.00;2107853;28;20277;-67
2022/10/08 10:56:41;;;;;;;21.60;3.05;;;;;;;26.28;33.29;97103.91;2102091;28;20238;-66
2022/10/08 10:58:08;;;;;;;15.50;2.33;;;;;;;25.77;34.15;97100.97;2097666;28;20257;-67
2022/10/08 10:59:33;;;;;;;14.45;2.10;;;;;;;26.60;34.96;97109.63;2092231;28;20665;-66
2022/10/08 11:00:45;;;;;;;8.05;2.00;;;;;;;25.32;35.70;97099.13;2102410;28;20340;-67
2022/10/08 11:02:02;;;;;;;8.23;2.10;;;;;;;24.93;35.78;97101.03;2097185;28;20669;-67
2022/10/08 11:03:33;;;;;;;9.40;1.80;;;;;;;24.64;37.02;97106.50;2099146;28;20286;-67
2022/10/08 11:04:59;;;;;;;8.57;1.90;;;;;;;26.17;33.95;97105.00;2103510;28;20207;-66
2022/10/08 11:06:16;;;;;;;17.52;2.85;;;;;;;25.85;34.85;97098.38;2107301;28;20321;-66
2022/10/08 11:07:45;;;;;;;7.75;2.00;;;;;;;25.68;35.22;97105.41;2092386;28;20380;-67
2022/10/08 11:09:14;;;;;;;8.55;2.00;;;;;;;26.08;33.86;97101.44;2100889;28;20359;-67
2022/10/08 11:10:44;;;;;;;12.57;2.67;;;;;;;26.21;34.77;97109.06;2110189;28;20827;-67
2022/10/08 11:12:10;;;;;;;7.60;1.95;;;;;;;26.45;34.96;97109.38;2095941;28;20603;-66
2022/10/08 11:13:30;;;;;;;16.30;2.08;;;;;;;26.63;34.35;97102.13;2095977;28;20211;-67
2022/10/08 11:14:43;;;;;;;7.00;2.25;;;;;;;26.55;34.45;97092.22;2098924;28;20610;-67
2022/10/08 11:16:23;;;;;;;8.73;2.83;;;;;;;26.34;34.13;97108.63;2104667;28;20826;-66
2022/10/08 11:17:33;;;;;;;6.53;2.88;;;;;;;25.70;35.63;97110.59;2091207;28;20215;-66
2022/10/08 11:18:42;;;;;;;10.60;2.55;;;;;;;24.20;37.50;97107.00;2099854;28;20286;-66
2022/10/08 11:20:01;;;;;;;12.40;2.45;;;;;;;24.35;38.91;97109.22;2106790;28;20198;-66
2022/10/08 11:21:11;;;;;;;8.50;2.55;;;;;;;24.49;37.91;97113.25;2108986;28;20280;-65
2022/10/08 11:22:36;;;;;;;4.82;1.50;;;;;;;23.84;37.74;97097.88;2096489;28;20305;-65
2022/10/08 11:24:15;;;;;;;6.05;1.77;;;;;;;24.32;37.59;97102.34;2105683;28;20549;-65
2022/10/08 11:25:26;;;;;;;7.75;2.08;;;;;;;24.86;36.62;97094.63;2108994;28;20194;-66
2022/10/08 11:26:50;;;;;;;9.43;1.80;;;;;;;24.23;37.35;97109.38;2109850;28;20233;-65
2022/10/08 11:28:14;;;;;;;16.70;2.17;;;;;;;24.88;36.39;97105.16;2106558;28;20245;-65
2022/10/08 11:29:37;;;;;;;10.63;2.10;;;;;;;25.01;36.34;97112.81;2107732;28;20319;-66
2022/10/08 11:31:01;;;;;;;12.90;2.80;;;;;;;23.19;38.21;97093.91;2109215;28;20198;-65
2022/10/08 11:32:04;;;;;;;12.02;2.58;;;;;;;24.00;37.84;97108.84;2077632;28;20227;-65
2022/10/08 11:33:12;;;;;;;8.02;2.03;;;;;;;24.43;37.67;97109.34;2089030;28;20921;-65
2022/10/08 11:34:18;;;;;;;9.15;2.38;;;;;;;24.71;37.57;97112.94;2103848;28;20278;-65
2022/10/08 11:35:33;;;;;;;9.23;2.25;;;;;;;24.89;36.35;97105.00;2108850;28;20831;-66
2022/10/08 11:36:48;;;;;;;9.80;1.90;;;;;;;24.91;37.33;97105.69;2106684;28;20235;-66
2022/10/08 11:50:03;;;;;;;8.63;2.65;;;;;;;25.26;37.72;97097.91;2101225;28;20199;-66
2022/10/08 11:51:20;;;;;;;7.10;1.48;;;;;;;24.70;38.73;97105.09;2106989;28;20677;-66
2022/10/08 11:52:27;;;;;;;16.95;2.33;;;;;;;24.18;38.62;97105.47;2090643;28;20317;-66
2022/10/08 11:53:29;;;;;;;13.05;2.25;;;;;;;23.13;40.05;97078.44;2097304;28;20279;-66
2022/10/08 11:54:33;;;;;;;13.50;2.05;;;;;;;22.60;41.95;97091.00;2103273;28;20660;-68
2022/10/08 11:55:57;;;;;;;11.00;2.10;;;;;;;23.47;40.26;97102.91;2107346;28;20229;-69
2022/10/08 11:57:16;;;;;;;10.25;3.00;;;;;;;23.75;40.28;97095.06;2096225;28;20303;-68
2022/10/08 11:58:30;;;;;;;11.13;2.78;;;;;;;25.03;38.88;97101.00;2105603;28;20281;-70
2022/10/08 12:00:05;;;;;;;10.23;1.75;;;;;;;25.22;38.35;97107.25;2110068;28;20198;-69
2022/10/08 12:01:09;;;;;;;5.68;1.73;;;;;;;24.61;38.69;97096.09;2102311;28;20243;-69
2022/10/08 12:02:23;;;;;;;10.20;1.95;;;;;;;25.30;38.32;97111.84;2096763;28;20325;-69
2022/10/08 12:03:36;;;;;;;12.35;1.52;;;;;;;24.30;38.96;97090.97;2107309;28;20276;-69
2022/10/08 12:04:38;;;;;;;12.77;2.10;;;;;;;22.15;41.36;97104.59;2105639;28;20206;-70
2022/10/08 12:05:45;;;;;;;12.65;2.90;;;;;;;21.49;43.44;97111.72;2102628;28;20261;-70
2022/10/08 12:07:02;;;;;;;10.43;2.25;;;;;;;21.81;43.16;97105.63;2094293;28;20199;-70
2022/10/08 12:08:05;;;;;;;10.38;2.05;;;;;;;22.05;42.99;97114.31;2099588;28;20850;-70
2022/10/08 12:09:21;;;;;;;10.05;2.30;;;;;;;21.12;44.27;97106.75;2102341;28;20651;-70
2022/10/08 12:10:32;;;;;;;11.57;2.15;;;;;;;21.49;43.97;97114.38;2106799;28;20237;-70
2022/10/08 12:11:34;;;;;;;7.18;2.28;;;;;;;22.84;41.93;97111.13;2105465;28;20286;-71
2022/10/08 12:12:47;;;;;;;11.68;1.95;;;;;;;23.50;40.96;97109.78;2091585;28;20315;-70
2022/10/08 12:14:12;;;;;;;8.18;2.10;;;;;;;23.19;41.05;97111.72;2099881;28;20194;-71
2022/10/08 12:15:22;;;;;;;5.28;1.60;;;;;;;23.01;41.70;97107.00;2099706;28;20194;-70
2022/10/08 12:16:46;;;;;;;11.00;2.35;;;;;;;21.96;43.26;97108.78;2104111;28;20187;-71
2022/10/08 12:18:12;;;;;;;7.15;1.65;;;;;;;22.22;42.91;97104.91;2096569;28;20726;-70
2022/10/08 12:19:34;;;;;;;7.50;1.70;;;;;;;22.90;41.54;97105.25;2067544;28;20256;-70
2022/10/08 12:20:38;;;;;;;11.43;2.08;;;;;;;22.76;41.16;97085.19;2104898;28;20615;-70
2022/10/08 12:21:48;;;;;;;4.60;1.77;;;;;;;22.50;41.25;97106.09;2083044;28;20200;-70
2022/10/08 12:23:21;;;;;;;4.97;1.50;;;;;;;22.09;41.10;97110.41;2092459;28;20231;-70
2022/10/08 12:24:38;;;;;;;6.55;1.88;;;;;;;22.53;40.42;97111.13;2080779;28;20255;-70
2022/10/08 12:25:59;;;;;;;5.30;1.63;;;;;;;23.46;39.08;97105.72;2106266;28;20340;-70
2022/10/08 12:27:15;;;;;;;5.03;1.98;;;;;;;23.12;39.28;97114.03;2091812;28;20242;-71
2022/10/08 12:28:19;;;;;;;13.05;1.50;;;;;;;22.99;40.22;97100.94;2099752;28;20214;-70
2022/10/08 12:29:47;;;;;;;10.23;1.85;;;;;;;22.50;40.66;97103.44;2097149;28;20204;-71
2022/10/08 12:30:49;;;;;;;5.40;1.80;;;;;;;22.62;40.32;97074.91;2100576;28;20282;-71
2022/10/08 12:32:00;;;;;;;6.47;1.83;;;;;;;23.05;40.45;97102.25;2097618;28;20685;-70
2022/10/08 12:33:02;;;;;;;15.57;2.97;;;;;;;23.27;39.60;97106.53;2108043;28;20286;-71
2022/10/08 12:34:17;;;;;;;8.25;1.65;;;;;;;23.46;39.87;97100.38;2108483;28;20363;-71
2022/10/08 12:35:20;;;;;;;11.30;1.73;;;;;;;23.47;40.84;97105.56;2110607;28;20233;-70
2022/10/08 12:36:30;;;;;;;12.90;2.90;;;;;;;24.03;40.23;97102.41;2100580;28;20680;-70
2022/10/08 12:37:51;;;;;;;3.92;1.63;;;;;;;24.30;40.00;97104.31;2085468;28;20718;-70
2022/10/08 12:39:19;;;;;;;17.40;2.33;;;;;;;24.49;38.92;97098.06;2096820;28;20646;-70
2022/10/08 12:40:39;;;;;;;10.18;2.30;;;;;;;24.41;38.72;97108.66;2102613;28;20584;-69
2022/10/08 12:42:05;;;;;;;5.45;1.48;;;;;;;23.72;38.10;97086.50;2099465;28;20654;-66
2022/10/08 12:43:17;;;;;;;9.00;1.95;;;;;;;22.18;40.02;97099.00;2101715;28;20567;-66
2022/10/08 12:44:28;;;;;;;6.07;1.65;;;;;;;22.69;39.02;97107.13;2104914;28;20290;-69
2022/10/08 12:45:39;;;;;;;13.63;7.20;;;;;;;23.37;37.62;97095.91;2105610;28;20290;-69
2022/10/08 12:47:14;;;;;;;9.45;2.58;;;;;;;23.85;36.21;97096.91;2095152;28;20299;-70
2022/10/08 12:48:32;;;;;;;4.60;1.35;;;;;;;24.01;36.54;97102.56;2096933;28;20200;-70
2022/10/08 12:49:40;;;;;;;4.15;1.15;;;;;;;23.29;36.62;97094.75;2099745;28;20279;-70
2022/10/08 12:56:03;;;;;;;3.08;1.20;;;;;;;23.95;38.98;97093.28;2107558;28;20227;-70
2022/10/08 12:57:10;;;;;;;6.65;1.95;;;;;;;24.32;38.43;97089.00;2099322;28;20248;-70
2022/10/08 12:58:19;;;;;;;4.28;1.67;;;;;;;24.73;37.93;97094.94;2109883;28;20286;-70
2022/10/08 12:59:24;;;;;;;6.65;1.52;;;;;;;23.99;38.69;97087.66;2102009;28;20651;-70
2022/10/08 13:00:33;;;;;;;7.72;1.75;;;;;;;25.17;38.33;97105.00;2101617;28;20286;-70
2022/10/08 13:01:35;;;;;;;12.10;1.40;;;;;;;25.27;37.63;97102.28;2102590;28;20231;-69
2022/10/08 13:08:03;;;;;;;8.07;1.65;;;;;;;22.23;43.03;97107.41;2092629;28;20215;-69
2022/10/08 13:09:26;;;;;;;4.45;1.40;;;;;;;21.80;43.43;97103.91;2098616;28;20653;-69
2022/10/08 13:10:28;;;;;;;3.63;1.30;;;;;;;21.24;44.27;97107.56;2106790;28;20835;-69
2022/10/08 13:11:29;;;;;;;8.57;1.48;;;;;;;20.04;46.78;97096.53;2106245;28;20639;-70
2022/10/08 13:12:31;;;;;;;10.25;2.20;;;;;;;20.11;47.00;97103.03;2091352;28;20258;-69
2022/10/08 13:13:39;;;;;;;11.00;2.10;;;;;;;20.25;47.20;97106.47;2094766;28;20234;-69
2022/10/08 13:14:41;;;;;;;8.40;2.65;;;;;;;20.39;47.08;97099.13;2098429;28;20211;-69
2022/10/08 13:15:42;;;;;;;9.57;1.67;;;;;;;20.95;46.36;97110.75;2106959;28;20221;-67
2022/10/08 13:16:45;;;;;;;6.60;1.42;;;;;;;20.74;46.40;97109.81;2106766;28;20233;-68
2022/10/08 13:17:47;;;;;;;10.40;2.70;;;;;;;19.65;49.25;97109.97;2108130;28;20206;-70
2022/10/08 13:18:52;;;;;;;7.18;2.22;;;;;;;19.82;48.62;97094.63;2097422;28;20237;-68
2022/10/08 13:20:08;;;;;;;10.52;1.90;;;;;;;19.71;48.77;97104.22;2090190;28;20234;-68
2022/10/08 13:21:35;;;;;;;8.23;1.73;;;;;;;19.47;49.58;97114.84;2090334;28;20195;-68
2022/10/08 13:22:36;;;;;;;11.23;2.03;;;;;;;19.70;49.12;97107.81;2084739;28;20253;-68
2022/10/08 13:23:38;;;;;;;8.35;1.55;;;;;;;19.92;48.92;97108.91;2099389;28;20230;-68
2022/10/08 13:24:42;;;;;;;8.25;1.60;;;;;;;19.62;49.27;97112.88;2096382;28;20687;-68
2022/10/08 13:25:43;;;;;;;7.88;1.55;;;;;;;19.51;49.27;97112.81;2099512;28;20731;-69
2022/10/08 13:26:51;;;;;;;9.82;1.60;;;;;;;19.74;49.17;97111.97;2094961;28;20483;-69
2022/10/08 13:28:10;;;;;;;8.07;1.73;;;;;;;20.23;48.00;97109.22;2099969;28;20204;-69
2022/10/08 13:29:37;;;;;;;9.27;1.55;;;;;;;21.45;46.45;97104.97;2103544;28;20238;-68
2022/10/08 13:30:39;;;;;;;4.32;1.10;;;;;;;22.07;45.04;97118.53;2109427;28;20233;-69
2022/10/08 13:31:40;;;;;;;13.02;1.95;;;;;;;21.85;44.83;97100.84;2097054;28;20219;-69
2022/10/08 13:32:42;;;;;;;10.38;1.70;;;;;;;21.74;44.42;97107.09;2099719;28;20207;-69
2022/10/08 13:33:44;;;;;;;5.65;1.60;;;;;;;22.54;43.97;97102.19;2101993;28;20210;-69
2022/10/08 13:34:54;;;;;;;12.65;2.10;;;;;;;22.33;43.58;97108.34;2099287;28;20200;-69
2022/10/08 13:35:58;;;;;;;5.65;1.50;;;;;;;22.76;43.54;97109.13;2098856;28;20199;-68
2022/10/08 13:37:03;;;;;;;10.57;1.65;;;;;;;22.41;42.51;97085.56;2094208;28;20216;-67
2022/10/08 13:38:06;;;;;;;10.15;1.88;;;;;;;21.81;43.99;97080.84;2098398;28;20575;-68
2022/10/08 13:39:22;;;;;;;10.98;1.63;;;;;;;22.40;43.29;97078.56;2103219;28;20238;-67
2022/10/08 13:40:24;;;;;;;6.40;1.73;;;;;;;22.33;43.18;97081.75;2105778;28;20303;-68